Decoded Metar for LFPM (MELUN in FRANCE) (IATA:N/A) | Meteo·Mobile Aviation Weather
aviador You're here:

LFPM Decoded Metar

MELUN in FRANCE
Report Time2019-07-22 16:00:00
UTC Time2019-07-22 16:16:33
Flight Rules vfr VFR
Wind080° at 03 kt
W.Decomp.*RWY 10: 2.8 kt HW 1 kt LCW
RWY 01: 1.0 kt HW 2.8 kt RCW
Visibility9999 m
Phenomena:N/A
Clouds:N/A
Expected CloudBase > 8,000 ft AGL from Temp-Dew spread
CeilingNone
Temp32°C (ISA +18)
Dew Point12°C (29% RH)
Heat Index30.7°C
AAT31.5°C
QNH1021 hPa
Density Alt2,234 ft
Elevation302 ft
Report Wrong Elevation
Raw Report
METAR LFPM 221600Z AUTO 08003KT 330V130 CAVOK 32/12 Q1021=

Extra information for LFPM:More info

Metar Taf Metar & Taf Last 4 Metars F.Rules Stats Wind Profile Meteogram Temp Stats Airport Information Weather charts Add Link Nearby VenuesMetar ALERT Operation Metar Decoded Social comments